Time;durP1;ratioP1;P1;durP2;ratioP2;P2;SDS_P1;SDS_P2;PMS_P1;PMS_P2;Temp;Humidity;BMP_temperature;BMP_pressure;BME280_temperature;BME280_humidity;BME280_pressure;Samples;Min_cycle;Max_cycle;Signal;HPM_P1;HPM_P2
2023/07/06 00:02:26;;;;;;;7.00;4.35;;;;;;;11.45;100.00;101370.75;4958471;28;20051;-83
2023/07/06 00:04:53;;;;;;;9.25;4.80;;;;;;;11.44;100.00;101374.28;5036474;28;20052;-80
2023/07/06 00:07:22;;;;;;;6.95;4.05;;;;;;;11.43;100.00;101379.53;4998558;28;20050;-80
2023/07/06 00:09:50;;;;;;;6.35;4.00;;;;;;;11.42;100.00;101372.50;5048782;28;20045;-81
2023/07/06 00:12:19;;;;;;;7.53;3.92;;;;;;;11.43;100.00;101374.25;5037999;28;20052;-80
2023/07/06 00:14:46;;;;;;;7.03;4.07;;;;;;;11.44;100.00;101384.84;5019307;28;20053;-81
2023/07/06 00:17:16;;;;;;;13.65;4.32;;;;;;;11.46;100.00;101377.81;5044526;28;20053;-81
2023/07/06 00:19:46;;;;;;;6.87;4.70;;;;;;;11.49;100.00;101374.31;4973092;28;20049;-82
2023/07/06 00:22:15;;;;;;;7.68;4.43;;;;;;;11.53;100.00;101378.75;5005439;28;20106;-81
2023/07/06 00:24:46;;;;;;;5.90;4.63;;;;;;;11.56;100.00;101375.25;5021121;28;20045;-81
2023/07/06 00:27:17;;;;;;;4.70;4.20;;;;;;;11.58;100.00;101374.38;5028888;28;20053;-79
2023/07/06 00:29:56;;;;;;;6.85;4.38;;;;;;;11.61;100.00;101379.69;5008778;28;20049;-82
2023/07/06 00:32:28;;;;;;;8.80;4.05;;;;;;;11.63;100.00;101377.06;5020685;28;20041;-82
2023/07/06 00:34:57;;;;;;;7.50;4.35;;;;;;;11.65;100.00;101381.47;5005775;28;20046;-81
2023/07/06 00:37:24;;;;;;;7.05;4.32;;;;;;;11.68;100.00;101384.16;5042475;28;20042;-80
2023/07/06 00:39:52;;;;;;;5.75;3.90;;;;;;;11.70;100.00;101386.78;5022493;28;20412;-80
2023/07/06 00:42:22;;;;;;;5.85;4.70;;;;;;;11.74;100.00;101391.22;5048365;28;20500;-80
2023/07/06 00:44:59;;;;;;;6.28;4.55;;;;;;;11.76;100.00;101388.56;5037273;28;20945;-81
2023/07/06 00:47:33;;;;;;;7.50;4.28;;;;;;;11.77;100.00;101390.34;5049739;28;20048;-81
2023/07/06 00:50:10;;;;;;;10.90;4.60;;;;;;;11.75;100.00;101382.41;5047941;28;20045;-81
2023/07/06 00:52:45;;;;;;;13.82;4.45;;;;;;;11.75;100.00;101389.47;5010633;28;20057;-81
2023/07/06 00:55:15;;;;;;;7.38;4.45;;;;;;;11.71;100.00;101386.78;5039640;28;20060;-80
2023/07/06 00:57:46;;;;;;;11.88;5.53;;;;;;;11.69;100.00;101385.03;5048028;28;20041;-81
2023/07/06 01:00:20;;;;;;;9.55;4.03;;;;;;;11.65;100.00;101383.25;5027651;28;20050;-81
2023/07/06 01:02:56;;;;;;;9.38;4.40;;;;;;;11.62;100.00;101396.41;5013350;28;20049;-81
2023/07/06 01:05:27;;;;;;;7.40;4.72;;;;;;;11.57;100.00;101385.81;5013818;28;20051;-80
2023/07/06 01:08:04;;;;;;;6.20;4.53;;;;;;;11.54;100.00;101392.84;5038137;28;20064;-82
2023/07/06 01:10:33;;;;;;;5.82;4.53;;;;;;;11.50;100.00;101394.56;5034385;28;20045;-82
2023/07/06 01:13:01;;;;;;;10.77;4.68;;;;;;;11.48;100.00;101397.19;5055612;28;20517;-82
2023/07/06 01:15:35;;;;;;;7.53;4.53;;;;;;;11.46;100.00;101396.28;5029470;28;20068;-81
2023/07/06 01:18:13;;;;;;;7.50;4.55;;;;;;;11.45;100.00;101406.81;5019805;28;20057;-79
2023/07/06 01:20:53;;;;;;;8.68;5.22;;;;;;;11.43;100.00;101398.88;5043018;28;20416;-81
2023/07/06 01:23:55;;;;;;;9.20;4.90;;;;;;;11.41;100.00;101403.28;4997033;28;20060;-81
2023/07/06 01:26:51;;;;;;;7.97;5.30;;;;;;;11.36;100.00;101404.09;5040227;28;20040;-81
2023/07/06 01:29:41;;;;;;;11.70;5.43;;;;;;;11.32;100.00;101398.81;5030007;28;20040;-79
2023/07/06 01:32:14;;;;;;;9.55;5.40;;;;;;;11.31;100.00;101402.31;5024042;28;20045;-81
2023/07/06 01:34:44;;;;;;;8.77;5.03;;;;;;;11.29;100.00;101404.06;5043160;28;20515;-81
2023/07/06 01:37:22;;;;;;;5.63;4.93;;;;;;;11.28;100.00;101406.66;5037072;28;20036;-82
2023/07/06 01:39:51;;;;;;;9.13;5.38;;;;;;;11.28;100.00;101404.03;5041985;28;20045;-82
2023/07/06 01:42:32;;;;;;;9.40;5.35;;;;;;;11.26;100.00;101404.00;5021949;28;20056;-82
2023/07/06 01:45:10;;;;;;;8.40;5.47;;;;;;;11.25;100.00;101404.91;5008948;28;20060;-81
2023/07/06 01:47:55;;;;;;;11.50;6.13;;;;;;;11.25;100.00;101401.38;5015455;28;20045;-81
2023/07/06 01:50:36;;;;;;;9.68;5.13;;;;;;;11.22;100.00;101402.22;5036247;28;20049;-80
2023/07/06 01:53:48;;;;;;;6.13;4.97;;;;;;;11.20;100.00;101403.97;5041361;28;20044;-81
2023/07/06 01:56:39;;;;;;;11.95;5.88;;;;;;;11.20;100.00;101401.31;5034542;28;20053;-80
2023/07/06 01:59:12;;;;;;;8.98;5.97;;;;;;;11.20;100.00;101406.59;5037556;28;20053;-81
2023/07/06 02:01:45;;;;;;;13.73;6.55;;;;;;;11.21;100.00;101413.66;5039199;28;20076;-81
2023/07/06 02:04:13;;;;;;;12.77;6.05;;;;;;;11.20;100.00;101411.00;5027552;28;20416;-80
2023/07/06 02:06:41;;;;;;;8.73;6.15;;;;;;;11.20;100.00;101408.38;5016403;28;20046;-81
2023/07/06 02:09:14;;;;;;;11.15;6.22;;;;;;;11.18;100.00;101405.72;4998303;28;20049;-82
2023/07/06 02:11:41;;;;;;;10.23;6.65;;;;;;;11.17;100.00;101413.59;5031352;28;20420;-80
2023/07/06 02:14:09;;;;;;;11.10;5.75;;;;;;;11.15;100.00;101412.69;5022055;28;20063;-83
2023/07/06 02:16:37;;;;;;;14.82;6.93;;;;;;;11.16;100.00;101411.84;4997479;28;20053;-83
2023/07/06 02:19:05;;;;;;;13.25;6.60;;;;;;;11.17;100.00;101403.97;5028226;28;20037;-81
2023/07/06 02:21:32;;;;;;;12.35;6.78;;;;;;;11.18;100.00;101413.63;5051895;28;20045;-81
2023/07/06 02:24:00;;;;;;;12.95;7.97;;;;;;;11.21;100.00;101410.13;5000373;28;20521;-81
2023/07/06 02:26:27;;;;;;;9.15;6.90;;;;;;;11.25;100.00;101411.94;5008535;28;20443;-79
2023/07/06 02:28:55;;;;;;;13.18;8.18;;;;;;;11.28;100.00;101406.66;5049048;28;20175;-80
2023/07/06 02:31:22;;;;;;;12.82;7.07;;;;;;;11.31;100.00;101404.06;5030849;28;20053;-81
2023/07/06 02:33:52;;;;;;;13.95;7.28;;;;;;;11.34;100.00;101408.47;5000612;28;20052;-80
2023/07/06 02:36:19;;;;;;;19.35;7.97;;;;;;;11.35;100.00;101407.63;5025154;28;20428;-81
2023/07/06 02:38:48;;;;;;;13.90;8.57;;;;;;;11.35;100.00;101416.41;4999189;28;20069;-81
2023/07/06 02:41:17;;;;;;;12.45;7.95;;;;;;;11.38;100.00;101408.53;4991075;28;20049;-81
2023/07/06 02:43:45;;;;;;;16.02;8.00;;;;;;;11.40;100.00;101411.16;5012729;28;20488;-81
2023/07/06 02:46:19;;;;;;;14.02;8.65;;;;;;;11.44;100.00;101413.88;5018800;28;20064;-79
2023/07/06 02:48:49;;;;;;;17.25;8.57;;;;;;;11.47;100.00;101406.00;5024103;28;20049;-81
2023/07/06 02:51:16;;;;;;;15.60;8.15;;;;;;;11.50;100.00;101411.28;5031295;28;20045;-81
2023/07/06 02:53:43;;;;;;;13.05;8.50;;;;;;;11.54;100.00;101414.81;5037348;28;20076;-81
2023/07/06 02:56:11;;;;;;;10.77;8.65;;;;;;;11.57;100.00;101414.84;4990964;28;20060;-82
2023/07/06 02:58:40;;;;;;;19.77;9.45;;;;;;;11.60;100.00;101419.28;5023589;28;20045;-81
2023/07/06 03:01:08;;;;;;;13.75;9.20;;;;;;;11.64;100.00;101419.28;5032278;28;20052;-81
2023/07/06 03:03:35;;;;;;;12.02;8.05;;;;;;;11.67;100.00;101421.09;5015523;28;20049;-81
2023/07/06 03:06:03;;;;;;;13.75;9.13;;;;;;;11.71;100.00;101425.53;5033271;28;20459;-80
2023/07/06 03:08:30;;;;;;;15.68;9.25;;;;;;;11.74;100.00;101422.00;5018547;28;20045;-82
2023/07/06 03:10:58;;;;;;;14.02;8.88;;;;;;;11.77;100.00;101425.56;4974303;28;20053;-80
2023/07/06 03:13:28;;;;;;;14.27;8.65;;;;;;;11.79;100.00;101430.84;5012927;28;20045;-81
2023/07/06 03:15:56;;;;;;;18.80;9.00;;;;;;;11.80;100.00;101425.59;5020255;28;20049;-81
2023/07/06 03:18:25;;;;;;;15.32;9.20;;;;;;;11.83;100.00;101433.56;5018425;28;20045;-81
2023/07/06 03:20:53;;;;;;;14.48;8.93;;;;;;;11.85;100.00;101425.59;4996937;28;20048;-81
2023/07/06 03:23:21;;;;;;;16.75;10.00;;;;;;;11.88;100.00;101438.84;5051823;28;20045;-81
2023/07/06 03:25:53;;;;;;;14.77;8.95;;;;;;;11.89;100.00;101433.63;5006269;28;20045;-81
2023/07/06 03:28:23;;;;;;;14.88;8.73;;;;;;;11.92;100.00;101426.59;5039962;28;20044;-81
2023/07/06 03:30:57;;;;;;;14.00;7.97;;;;;;;11.93;100.00;101429.25;5037468;28;20049;-81
2023/07/06 03:33:26;;;;;;;12.32;9.20;;;;;;;11.95;100.00;101438.06;5032735;28;20053;-81
2023/07/06 03:35:55;;;;;;;13.85;8.93;;;;;;;11.96;100.00;101431.88;5016448;28;20049;-81
2023/07/06 03:38:25;;;;;;;14.52;9.35;;;;;;;11.96;100.00;101437.16;5034315;28;20112;-81
2023/07/06 03:40:54;;;;;;;12.68;8.93;;;;;;;11.97;100.00;101438.94;4989600;28;20429;-81
2023/07/06 03:43:21;;;;;;;12.88;8.93;;;;;;;11.97;100.00;101446.88;5052376;28;20048;-82
2023/07/06 03:45:49;;;;;;;12.45;7.97;;;;;;;11.96;100.00;101438.94;5019326;28;20060;-81
2023/07/06 03:48:17;;;;;;;15.25;9.38;;;;;;;11.96;100.00;101436.28;5001211;28;20045;-81
2023/07/06 03:50:45;;;;;;;13.57;8.68;;;;;;;11.95;100.00;101443.34;5037359;28;20053;-81
2023/07/06 03:53:12;;;;;;;11.98;7.35;;;;;;;11.96;100.00;101441.56;5050103;28;20188;-81
2023/07/06 03:55:40;;;;;;;14.95;8.40;;;;;;;11.94;100.00;101446.84;5009576;28;20059;-80
2023/07/06 03:58:10;;;;;;;11.43;8.07;;;;;;;11.94;100.00;101452.13;4996360;28;20037;-82
2023/07/06 04:00:38;;;;;;;10.25;8.15;;;;;;;11.93;100.00;101445.09;5004199;28;20412;-81
2023/07/06 04:03:06;;;;;;;20.60;8.13;;;;;;;11.92;100.00;101448.59;5007110;28;20061;-81
2023/07/06 04:05:38;;;;;;;10.45;7.80;;;;;;;11.93;100.00;101450.38;5034691;28;20055;-81
2023/07/06 04:08:09;;;;;;;17.42;8.23;;;;;;;11.94;100.00;101453.88;5016233;28;20046;-82
2023/07/06 04:10:40;;;;;;;11.90;7.75;;;;;;;11.94;100.00;101453.88;5031191;28;20056;-81
2023/07/06 04:13:09;;;;;;;14.30;7.53;;;;;;;12.06;100.00;101452.22;5010221;28;20055;-81
2023/07/06 04:15:40;;;;;;;8.05;6.88;;;;;;;12.46;100.00;101459.50;5023297;28;20053;-81
2023/07/06 04:18:09;;;;;;;10.00;6.88;;;;;;;12.87;100.00;101454.41;5036800;28;20053;-81
2023/07/06 04:20:37;;;;;;;11.48;6.93;;;;;;;13.54;100.00;101457.22;5050355;28;20049;-81
2023/07/06 04:23:05;;;;;;;10.27;6.00;;;;;;;14.27;100.00;101453.59;5030652;28;20053;-82
2023/07/06 04:25:34;;;;;;;8.60;5.75;;;;;;;15.01;100.00;101456.00;5040122;28;20038;-81
2023/07/06 04:28:05;;;;;;;7.53;4.82;;;;;;;15.76;100.00;101450.22;4987959;28;20049;-81
2023/07/06 04:30:35;;;;;;;8.60;4.78;;;;;;;16.43;100.00;101452.19;5012971;28;20053;-81
2023/07/06 04:33:04;;;;;;;6.85;4.40;;;;;;;17.13;100.00;101453.09;5034982;28;20037;-81
2023/07/06 04:35:31;;;;;;;9.27;3.95;;;;;;;17.77;100.00;101452.97;5035839;28;20041;-82
2023/07/06 04:37:59;;;;;;;6.00;3.83;;;;;;;18.33;100.00;101455.56;5019733;28;20519;-81
2023/07/06 04:40:28;;;;;;;5.57;4.43;;;;;;;18.67;100.00;101461.97;5019497;28;20037;-81
2023/07/06 04:42:55;;;;;;;4.10;3.75;;;;;;;19.04;100.00;101458.56;4995691;28;20416;-82
2023/07/06 04:45:25;;;;;;;5.97;3.38;;;;;;;19.47;100.00;101465.59;5016452;28;20049;-80
2023/07/06 04:47:54;;;;;;;5.78;3.45;;;;;;;19.86;100.00;101456.63;5023469;28;20038;-80
2023/07/06 04:50:25;;;;;;;4.45;3.63;;;;;;;20.19;100.00;101462.91;5017014;28;20056;-80
2023/07/06 04:52:59;;;;;;;5.15;3.53;;;;;;;20.53;100.00;101464.63;5042895;28;20045;-84
2023/07/06 04:55:30;;;;;;;7.13;3.45;;;;;;;20.79;100.00;101465.69;5009960;28;20049;-81
2023/07/06 04:57:59;;;;;;;4.88;3.70;;;;;;;20.94;100.00;101475.06;5005060;28;20044;-81
2023/07/06 05:00:29;;;;;;;4.82;3.38;;;;;;;21.20;100.00;101475.16;5053533;28;20061;-81
2023/07/06 05:03:08;;;;;;;5.35;3.20;;;;;;;21.40;100.00;101479.03;5042679;28;20553;-81
2023/07/06 05:05:45;;;;;;;3.83;3.38;;;;;;;21.20;100.00;101477.84;5038552;28;20064;-82
2023/07/06 05:08:16;;;;;;;6.97;3.58;;;;;;;20.89;100.00;101477.00;5052460;28;20048;-80
2023/07/06 05:10:46;;;;;;;9.20;3.60;;;;;;;20.47;100.00;101475.50;5027573;28;20045;-81
2023/07/06 05:13:14;;;;;;;;;;;;;;;20.19;100.00;101488.78;5002655;28;20048;-81
2023/07/06 05:15:42;;;;;;;5.82;3.42;;;;;;;19.86;100.00;101478.03;5034921;28;19920;-81
2023/07/06 05:18:09;;;;;;;5.53;3.17;;;;;;;19.51;100.00;101476.19;5044335;28;20041;-81
2023/07/06 05:20:37;;;;;;;7.63;3.95;;;;;;;19.09;100.00;101483.38;5052457;28;20498;-83
2023/07/06 05:23:07;;;;;;;7.10;3.60;;;;;;;18.60;100.00;101480.81;5038438;28;20047;-82
2023/07/06 05:25:36;;;;;;;6.80;4.00;;;;;;;18.44;100.00;101482.91;5003662;28;20076;-79
2023/07/06 05:28:04;;;;;;;7.70;3.80;;;;;;;18.82;100.00;101489.31;5027489;28;20052;-79
2023/07/06 05:30:31;;;;;;;5.18;3.53;;;;;;;19.21;100.00;101486.69;4953507;28;20049;-80
2023/07/06 05:32:59;;;;;;;7.90;3.75;;;;;;;19.81;100.00;101488.84;5031372;28;20052;-80
2023/07/06 05:35:27;;;;;;;5.60;4.03;;;;;;;20.29;100.00;101484.94;4997927;28;20045;-79
2023/07/06 05:37:55;;;;;;;5.70;3.75;;;;;;;20.63;100.00;101484.88;5035208;28;20037;-81
2023/07/06 05:40:23;;;;;;;7.85;4.00;;;;;;;21.03;100.00;101489.06;5030491;28;20411;-79
2023/07/06 05:42:50;;;;;;;8.95;4.28;;;;;;;21.49;100.00;101486.78;4996327;28;20496;-80
2023/07/06 05:45:19;;;;;;;6.60;3.78;;;;;;;21.58;100.00;101485.63;5005974;28;20040;-80
2023/07/06 05:47:47;;;;;;;8.05;3.83;;;;;;;21.73;100.00;101485.09;5021471;28;20425;-77
2023/07/06 05:50:14;;;;;;;4.97;3.47;;;;;;;21.82;100.00;101483.94;5021110;28;20398;-77
2023/07/06 05:52:41;;;;;;;7.07;4.22;;;;;;;22.00;100.00;101490.47;5029000;28;20065;-77
2023/07/06 05:55:09;;;;;;;6.60;4.53;;;;;;;22.11;100.00;101495.47;4998617;28;20060;-77
2023/07/06 05:57:37;;;;;;;6.72;3.90;;;;;;;22.03;100.00;101493.06;5008258;28;20053;-77
2023/07/06 06:00:09;;;;;;;6.88;3.70;;;;;;;21.96;100.00;101500.44;4974201;28;20041;-77
2023/07/06 06:02:39;;;;;;;7.20;3.50;;;;;;;21.91;100.00;101490.78;5020188;28;20061;-77
2023/07/06 06:05:07;;;;;;;6.50;3.90;;;;;;;22.05;100.00;101503.75;4997248;28;20045;-76
2023/07/06 06:07:35;;;;;;;6.13;4.10;;;;;;;22.10;100.00;101491.91;5030425;28;20514;-76
2023/07/06 06:10:03;;;;;;;9.13;4.22;;;;;;;22.03;100.00;101501.09;4994443;28;20057;-78
2023/07/06 06:12:31;;;;;;;5.38;3.95;;;;;;;21.83;100.00;101498.22;5021192;28;20049;-77
2023/07/06 06:15:00;;;;;;;9.02;3.75;;;;;;;21.77;100.00;101505.53;4962474;28;20053;-77
2023/07/06 06:17:28;;;;;;;9.60;4.30;;;;;;;21.62;100.00;101514.09;5010020;28;20523;-76
2023/07/06 06:19:56;;;;;;;10.23;4.00;;;;;;;21.25;100.00;101504.50;5034245;28;20056;-77
2023/07/06 06:22:23;;;;;;;6.43;4.30;;;;;;;20.93;100.00;101514.41;5005597;28;20048;-79
2023/07/06 06:24:51;;;;;;;8.48;4.60;;;;;;;20.79;100.00;101516.59;5031117;28;20125;-78
2023/07/06 06:27:19;;;;;;;7.60;4.40;;;;;;;20.77;100.00;101521.09;5002374;28;20053;-79
2023/07/06 06:29:46;;;;;;;8.63;4.68;;;;;;;20.92;100.00;101517.13;4977653;28;20057;-79
2023/07/06 06:32:14;;;;;;;11.93;5.10;;;;;;;20.90;100.00;101521.63;5005817;28;20687;-79
2023/07/06 06:34:42;;;;;;;8.65;4.45;;;;;;;20.83;100.00;101524.50;5019651;28;20056;-79
2023/07/06 06:37:12;;;;;;;9.63;5.25;;;;;;;20.89;100.00;101533.25;5000855;28;20045;-79
2023/07/06 06:39:40;;;;;;;7.20;4.38;;;;;;;20.98;100.00;101538.34;5025094;28;20065;-79
2023/07/06 06:42:09;;;;;;;8.32;4.47;;;;;;;21.04;100.00;101530.16;4982060;28;20058;-79
2023/07/06 06:44:41;;;;;;;10.18;5.72;;;;;;;21.01;100.00;101531.09;5013434;28;20053;-80
2023/07/06 06:47:10;;;;;;;8.52;4.55;;;;;;;20.92;100.00;101534.06;4947937;28;20053;-80
2023/07/06 06:49:38;;;;;;;9.73;5.25;;;;;;;20.75;100.00;101534.53;5024607;28;20085;-78
2023/07/06 06:52:06;;;;;;;7.97;4.78;;;;;;;20.53;100.00;101533.34;5026612;28;20040;-79
2023/07/06 06:54:34;;;;;;;9.38;5.25;;;;;;;20.38;100.00;101527.50;5033419;28;20037;-78
2023/07/06 06:57:04;;;;;;;7.20;5.07;;;;;;;20.16;100.00;101542.38;5013539;28;20045;-78
2023/07/06 06:59:32;;;;;;;12.38;4.90;;;;;;;20.00;100.00;101541.88;5011016;28;20045;-78
2023/07/06 07:02:02;;;;;;;16.20;5.47;;;;;;;19.79;100.00;101538.81;4967567;28;20547;-77
2023/07/06 07:04:31;;;;;;;11.98;4.88;;;;;;;19.72;100.00;101553.25;5002917;28;20057;-79
2023/07/06 07:07:03;;;;;;;9.70;5.07;;;;;;;19.72;100.00;101549.69;5047029;28;20049;-79
2023/07/06 07:09:33;;;;;;;10.77;5.57;;;;;;;19.64;100.00;101557.84;5019066;28;20040;-79
2023/07/06 07:12:01;;;;;;;11.30;5.25;;;;;;;19.60;100.00;101557.06;5017498;28;20044;-78
2023/07/06 07:14:31;;;;;;;8.13;5.57;;;;;;;19.56;100.00;101557.16;5018838;28;20052;-79
2023/07/06 07:16:58;;;;;;;11.45;5.68;;;;;;;19.59;100.00;101555.28;4991697;28;20048;-78
2023/07/06 07:19:28;;;;;;;14.65;5.68;;;;;;;19.59;100.00;101557.09;5000149;28;20045;-78
2023/07/06 07:21:57;;;;;;;15.20;5.78;;;;;;;19.52;100.00;101558.16;5016903;28;20049;-78
2023/07/06 07:24:25;;;;;;;9.27;4.57;;;;;;;19.55;100.00;101564.31;5028999;28;20046;-78
2023/07/06 07:26:53;;;;;;;14.30;5.60;;;;;;;19.62;100.00;101557.00;5013855;28;20070;-79
2023/07/06 07:29:23;;;;;;;10.23;4.97;;;;;;;19.61;100.00;101564.16;4991203;28;20049;-80
2023/07/06 07:31:51;;;;;;;11.52;5.43;;;;;;;19.47;100.00;101564.47;4980701;28;20056;-79
2023/07/06 07:34:19;;;;;;;11.50;4.95;;;;;;;19.44;100.00;101551.16;5033349;28;20053;-82
2023/07/06 07:36:46;;;;;;;10.10;4.50;;;;;;;19.53;100.00;101554.53;5042036;28;20056;-79
2023/07/06 07:39:15;;;;;;;10.15;5.30;;;;;;;19.61;100.00;101565.97;5013232;28;20408;-79
2023/07/06 07:41:45;;;;;;;12.75;4.82;;;;;;;19.66;100.00;101566.75;5013471;28;20055;-79
2023/07/06 07:44:15;;;;;;;12.38;4.72;;;;;;;19.69;100.00;101566.66;4991120;28;20053;-80
2023/07/06 07:46:43;;;;;;;8.73;4.25;;;;;;;19.70;100.00;101572.88;4981239;28;22806;-79
2023/07/06 07:49:11;;;;;;;6.85;4.20;;;;;;;19.75;100.00;101574.56;5027386;28;20054;-79
2023/07/06 07:51:39;;;;;;;8.38;3.88;;;;;;;19.81;100.00;101574.44;4997482;28;20833;-78
2023/07/06 07:54:06;;;;;;;8.93;3.15;;;;;;;19.82;100.00;101572.63;5013958;28;20052;-79
2023/07/06 07:56:34;;;;;;;6.43;3.00;;;;;;;19.91;100.00;101569.72;5024750;28;20053;-80
2023/07/06 07:59:02;;;;;;;8.43;4.25;;;;;;;20.01;100.00;101578.41;4996082;28;20053;-79
2023/07/06 08:01:30;;;;;;;8.98;3.70;;;;;;;20.02;100.00;101577.50;5011631;28;20055;-79
2023/07/06 08:03:58;;;;;;;6.22;3.45;;;;;;;19.97;100.00;101582.06;4971907;28;20042;-78
2023/07/06 08:06:26;;;;;;;7.72;3.33;;;;;;;20.00;100.00;101582.88;5017200;28;20045;-78
2023/07/06 08:08:53;;;;;;;8.73;2.50;;;;;;;20.01;100.00;101583.75;5028186;28;20137;-79
2023/07/06 08:11:23;;;;;;;5.00;2.97;;;;;;;19.92;100.00;101578.63;5032667;28;20045;-79
2023/07/06 08:13:53;;;;;;;7.03;2.35;;;;;;;19.85;100.00;101584.13;5004648;28;23461;-78
2023/07/06 08:16:23;;;;;;;6.03;2.53;;;;;;;19.98;100.00;101578.47;5023380;28;20037;-79
2023/07/06 08:18:51;;;;;;;3.72;2.20;;;;;;;20.11;100.00;101579.06;4986574;28;20245;-80
2023/07/06 08:21:34;;;;;;;6.13;2.80;;;;;;;20.14;100.00;101577.19;5034258;28;20040;-80
2023/07/06 08:24:21;;;;;;;4.00;2.42;;;;;;;20.18;100.00;101583.34;5041736;28;20048;-79
2023/07/06 08:26:49;;;;;;;5.25;2.25;;;;;;;20.09;100.00;101587.13;5015132;28;20061;-80
2023/07/06 08:29:17;;;;;;;3.45;1.73;;;;;;;20.11;100.00;101587.94;5031182;28;20508;-79
2023/07/06 08:31:45;;;;;;;3.78;1.80;;;;;;;20.23;100.00;101579.63;4989549;28;20068;-79
2023/07/06 08:34:14;;;;;;;3.10;1.77;;;;;;;20.22;100.00;101590.38;4976067;28;20504;-80
2023/07/06 08:36:43;;;;;;;3.80;1.73;;;;;;;20.10;100.00;101601.41;5002356;28;20085;-80
2023/07/06 08:39:10;;;;;;;3.88;2.13;;;;;;;19.95;100.00;101606.19;5026098;28;20492;-79
2023/07/06 08:41:44;;;;;;;4.28;1.80;;;;;;;19.81;100.00;101598.50;5023558;28;20046;-79
2023/07/06 08:44:13;;;;;;;3.22;1.70;;;;;;;19.76;100.00;101604.88;5026092;28;20044;-79
2023/07/06 08:46:48;;;;;;;4.82;1.90;;;;;;;19.83;100.00;101604.69;5021178;28;20059;-79
2023/07/06 08:49:19;;;;;;;3.35;1.48;;;;;;;19.91;100.00;101601.84;4968687;28;20045;-80
2023/07/06 08:51:48;;;;;;;6.40;1.80;;;;;;;19.94;100.00;101609.75;5014404;28;20060;-79
2023/07/06 08:54:24;;;;;;;7.35;1.73;;;;;;;19.85;100.00;101613.56;5008792;28;20107;-80
2023/07/06 08:56:53;;;;;;;3.47;1.50;;;;;;;19.79;100.00;101608.34;5021954;28;20065;-79
2023/07/06 08:59:46;;;;;;;3.30;1.70;;;;;;;19.74;100.00;101604.03;5022285;28;20048;-77
2023/07/06 09:02:36;;;;;;;3.85;1.60;;;;;;;19.62;100.00;101619.41;5007109;28;20061;-80
2023/07/06 09:05:13;;;;;;;5.18;1.75;;;;;;;19.57;100.00;101612.41;4982199;28;20041;-79
2023/07/06 09:07:44;;;;;;;4.07;1.80;;;;;;;19.50;100.00;101608.97;5035880;28;20090;-79
2023/07/06 09:10:14;;;;;;;4.05;1.85;;;;;;;19.48;100.00;101611.66;5016876;28;20052;-78
2023/07/06 09:12:53;;;;;;;;;;;;;;;19.50;100.00;101624.13;5037121;28;20049;-79
2023/07/06 09:15:27;;;;;;;3.75;1.73;;;;;;;19.51;100.00;101628.53;5013699;28;19929;-79
2023/07/06 09:18:02;;;;;;;9.00;1.80;;;;;;;19.47;100.00;101619.75;5035560;28;20064;-79
2023/07/06 09:20:34;;;;;;;3.55;1.27;;;;;;;19.42;100.00;101627.84;4997807;28;20053;-79
2023/07/06 09:23:06;;;;;;;2.33;1.60;;;;;;;19.37;100.00;101624.38;5023703;28;20480;-78
2023/07/06 09:25:36;;;;;;;5.45;1.45;;;;;;;19.37;100.00;101624.38;5031144;28;20045;-79
2023/07/06 09:28:07;;;;;;;;;;;;;;;19.43;100.00;101626.94;5030766;28;20056;-79
2023/07/06 09:30:37;;;;;;;;;;;;;;;19.50;100.00;101633.00;5033406;28;19921;-79
2023/07/06 09:33:24;;;;;;;4.28;1.52;;;;;;;19.59;100.00;101626.59;5021025;28;19921;-78
2023/07/06 09:35:56;;;;;;;4.38;1.60;;;;;;;19.57;100.00;101634.66;5006374;28;20048;-78
2023/07/06 09:38:25;;;;;;;4.57;1.52;;;;;;;19.49;100.00;101641.97;5039215;28;20049;-80
2023/07/06 09:40:54;;;;;;;3.45;1.67;;;;;;;19.40;100.00;101639.47;5004171;28;20061;-79
2023/07/06 09:43:40;;;;;;;5.43;1.40;;;;;;;19.23;100.00;101643.38;5039618;28;20463;-79
2023/07/06 09:46:09;;;;;;;3.55;1.30;;;;;;;19.16;100.00;101649.75;5015243;28;20049;-79
2023/07/06 09:48:39;;;;;;;5.05;1.73;;;;;;;19.07;100.00;101657.94;5043956;28;20057;-80
2023/07/06 09:51:24;;;;;;;;;;;;;;;19.00;100.00;101669.66;5002057;28;20049;-78
2023/07/06 09:53:54;;;;;;;3.97;1.88;;;;;;;18.93;100.00;101666.22;5045515;28;19921;-79
2023/07/06 09:56:22;;;;;;;4.63;1.80;;;;;;;18.92;100.00;101661.78;5034548;28;20042;-79
2023/07/06 09:58:52;;;;;;;6.95;1.38;;;;;;;19.07;100.00;101668.63;5026755;28;20295;-82
2023/07/06 10:01:41;;;;;;;3.67;1.60;;;;;;;19.35;100.00;101668.97;5026613;28;21467;-80
2023/07/06 10:04:36;;;;;;;3.35;1.50;;;;;;;19.54;100.00;101669.44;5030294;28;20048;-79
2023/07/06 10:07:11;;;;;;;5.43;1.88;;;;;;;19.61;100.00;101663.06;4990892;28;20059;-79
2023/07/06 10:09:46;;;;;;;3.47;1.40;;;;;;;19.68;100.00;101661.16;5039459;28;20060;-80
2023/07/06 10:12:27;;;;;;;4.82;1.48;;;;;;;19.64;97.68;101665.69;5044365;28;20053;-80
2023/07/06 10:14:55;;;;;;;3.65;1.70;;;;;;;19.51;99.88;101666.88;5050815;28;20053;-81
2023/07/06 10:17:38;;;;;;;3.10;1.60;;;;;;;19.43;98.05;101666.13;5019032;28;20056;-81
2023/07/06 10:20:18;;;;;;;2.08;1.38;;;;;;;19.56;100.00;101664.09;5029725;28;20053;-81
2023/07/06 10:22:56;;;;;;;3.95;1.60;;;;;;;19.77;100.00;101661.00;4984962;28;20044;-79
2023/07/06 10:25:33;;;;;;;1.90;1.50;;;;;;;19.96;99.69;101664.13;5028788;28;20045;-80
2023/07/06 10:28:26;;;;;;;3.35;1.33;;;;;;;20.20;95.00;101661.78;5034031;28;20045;-81
2023/07/06 10:30:57;;;;;;;3.80;1.52;;;;;;;20.33;97.29;101660.56;5020323;28;20486;-82
2023/07/06 10:33:31;;;;;;;3.42;1.70;;;;;;;20.40;96.10;101658.63;5023761;28;20037;-82
2023/07/06 10:36:00;;;;;;;3.60;1.55;;;;;;;20.50;96.17;101664.63;5038097;28;20060;-80
2023/07/06 10:38:27;;;;;;;3.47;1.60;;;;;;;20.44;94.99;101666.53;4999308;28;20079;-81
2023/07/06 10:41:29;;;;;;;4.18;1.55;;;;;;;20.30;91.91;101670.47;5023660;28;20053;-80
2023/07/06 10:44:40;;;;;;;3.17;1.50;;;;;;;20.11;91.84;101678.91;5005386;28;20052;-82
2023/07/06 10:47:28;;;;;;;2.25;1.30;;;;;;;19.85;92.12;101676.88;5021296;28;20060;-80
2023/07/06 10:50:08;;;;;;;4.85;1.80;;;;;;;19.71;96.81;101682.47;5031146;28;20049;-82
2023/07/06 10:52:39;;;;;;;2.17;1.60;;;;;;;19.64;97.87;101681.72;5027152;28;20045;-81
2023/07/06 10:55:28;;;;;;;8.75;1.60;;;;;;;19.60;95.28;101682.72;5028219;28;20041;-80
2023/07/06 10:58:10;;;;;;;4.90;1.48;;;;;;;19.59;98.71;101686.28;5031289;28;20060;-79
2023/07/06 11:00:44;;;;;;;2.00;1.38;;;;;;;19.68;100.00;101685.22;5034062;28;20052;-80
2023/07/06 11:03:17;;;;;;;2.53;1.80;;;;;;;19.78;100.00;101683.25;5038599;28;20056;-82
2023/07/06 11:06:08;;;;;;;3.25;1.60;;;;;;;19.97;100.00;101686.41;5053013;28;20475;-81
2023/07/06 11:09:04;;;;;;;2.25;1.60;;;;;;;20.20;100.00;101688.53;5045948;28;20048;-79
2023/07/06 11:11:38;;;;;;;3.92;1.58;;;;;;;20.54;100.00;101698.44;5039143;28;20056;-80
2023/07/06 11:14:23;;;;;;;2.40;1.80;;;;;;;20.72;98.29;101699.78;5041835;28;20075;-79
2023/07/06 11:17:02;;;;;;;4.70;1.80;;;;;;;20.68;95.44;101698.09;5035996;28;20052;-81
2023/07/06 11:19:56;;;;;;;2.30;1.77;;;;;;;20.50;94.42;101700.31;5027666;28;20053;-81
2023/07/06 11:22:25;;;;;;;2.30;1.70;;;;;;;20.55;95.79;101702.88;5047896;28;20044;-81
2023/07/06 11:25:03;;;;;;;3.35;1.40;;;;;;;20.78;94.69;101702.34;5023165;28;20047;-81
2023/07/06 11:27:35;;;;;;;3.03;1.45;;;;;;;21.06;93.97;101693.53;5027682;28;20060;-82
2023/07/06 11:30:09;;;;;;;1.73;1.30;;;;;;;21.22;94.91;101686.84;5042520;28;20056;-81
2023/07/06 11:33:00;;;;;;;6.85;1.52;;;;;;;21.23;90.75;101689.50;5037309;28;20049;-85
2023/07/06 11:35:43;;;;;;;1.45;1.10;;;;;;;21.26;88.56;101696.56;5042245;28;20496;-82
2023/07/06 11:38:28;;;;;;;1.80;1.20;;;;;;;21.42;84.09;101697.91;5034974;28;20049;-84
2023/07/06 11:41:13;;;;;;;3.22;1.30;;;;;;;21.58;87.11;101692.97;5023719;28;20072;-82